createdAt,value
2023-04-22T00:00:36.759Z,10.88
2023-04-22T00:03:08.853Z,10.95
2023-04-22T00:05:42.318Z,10.84
2023-04-22T00:08:14.307Z,10.95
2023-04-22T00:10:46.866Z,10.90
2023-04-22T00:13:19.196Z,10.95
2023-04-22T00:15:51.906Z,10.82
2023-04-22T00:18:23.917Z,10.85
2023-04-22T00:20:57.060Z,10.89
2023-04-22T00:23:29.345Z,10.84
2023-04-22T00:26:02.826Z,10.79
2023-04-22T00:28:34.677Z,10.64
2023-04-22T00:31:07.324Z,10.50
2023-04-22T00:33:39.621Z,10.56
2023-04-22T00:36:14.910Z,10.45
2023-04-22T00:38:52.595Z,10.40
2023-04-22T00:41:26.238Z,10.40
2023-04-22T00:44:00.442Z,10.41
2023-04-22T00:46:34.742Z,10.36
2023-04-22T00:49:08.095Z,10.22
2023-04-22T00:51:40.917Z,9.98
2023-04-22T00:54:13.198Z,10.17
2023-04-22T00:56:46.489Z,10.26
2023-04-22T00:59:18.483Z,10.17
2023-04-22T01:04:45.123Z,10.11
2023-04-22T01:07:17.366Z,10.03
2023-04-22T01:09:50.661Z,9.89
2023-04-22T01:12:23.734Z,9.89
2023-04-22T01:14:57.167Z,9.86
2023-04-22T01:17:32.229Z,9.76
2023-04-22T01:20:06.252Z,9.82
2023-04-22T01:22:42.684Z,10.29
2023-04-22T01:25:15.469Z,10.17
2023-04-22T01:27:47.514Z,10.02
2023-04-22T01:30:20.725Z,9.89
2023-04-22T01:32:53.031Z,9.75
2023-04-22T01:35:26.551Z,9.56
2023-04-22T01:37:58.441Z,9.46
2023-04-22T01:40:32.883Z,9.52
2023-04-22T01:43:05.672Z,9.51
2023-04-22T01:45:38.831Z,9.62
2023-04-22T01:48:11.320Z,9.61
2023-04-22T01:50:44.082Z,9.57
2023-04-22T01:53:19.041Z,9.50
2023-04-22T01:55:51.795Z,9.59
2023-04-22T01:58:23.673Z,9.58
2023-04-22T02:00:56.968Z,9.65
2023-04-22T02:03:29.027Z,9.61
2023-04-22T02:06:01.792Z,9.74
2023-04-22T02:08:35.152Z,9.91
2023-04-22T02:11:08.040Z,9.69
2023-04-22T02:13:41.206Z,9.59
2023-04-22T02:16:14.087Z,9.24
2023-04-22T02:18:47.750Z,9.10
2023-04-22T02:21:19.628Z,9.04
2023-04-22T02:23:52.324Z,9.00
2023-04-22T02:26:26.364Z,9.00
2023-04-22T02:28:58.262Z,8.73
2023-04-22T02:31:32.954Z,8.93
2023-04-22T02:34:05.784Z,8.86
2023-04-22T02:36:38.133Z,8.77
2023-04-22T02:39:12.162Z,9.40
2023-04-22T02:41:44.874Z,9.15
2023-04-22T02:44:17.337Z,9.33
2023-04-22T02:46:50.543Z,9.35
2023-04-22T02:49:23.968Z,8.95
2023-04-22T02:51:57.552Z,8.74
2023-04-22T02:54:30.336Z,8.66
2023-04-22T02:57:03.015Z,8.73
2023-04-22T02:59:37.808Z,8.50
2023-04-22T03:02:11.415Z,8.51
2023-04-22T03:05:04.311Z,8.71
2023-04-22T03:07:36.494Z,9.03
2023-04-22T03:10:09.507Z,9.39
2023-04-22T03:12:41.885Z,9.13
2023-04-22T03:15:14.838Z,9.03
2023-04-22T03:17:46.762Z,8.71
2023-04-22T03:20:22.170Z,8.68
2023-04-22T03:22:54.608Z,8.65
2023-04-22T03:25:27.742Z,8.53
2023-04-22T03:28:04.130Z,8.42
2023-04-22T03:30:36.907Z,8.31
2023-04-22T03:33:08.944Z,8.42
2023-04-22T03:35:50.197Z,9.07
2023-04-22T03:38:23.004Z,8.84
2023-04-22T03:40:57.380Z,8.92
2023-04-22T03:43:44.654Z,8.89
2023-04-22T03:46:17.650Z,8.73
2023-04-22T03:49:01.441Z,8.84
2023-04-22T03:51:39.156Z,8.71
2023-04-22T03:54:16.832Z,8.92
2023-04-22T03:56:56.151Z,8.96
2023-04-22T03:59:29.607Z,8.98
2023-04-22T04:02:02.448Z,9.06
2023-04-22T04:04:35.835Z,9.09
2023-04-22T04:07:11.016Z,8.93
2023-04-22T04:09:43.378Z,9.04
2023-04-22T04:12:17.345Z,9.03
2023-04-22T04:14:51.670Z,8.90
2023-04-22T04:17:26.362Z,8.88
2023-04-22T04:19:59.775Z,8.83
2023-04-22T04:22:32.528Z,8.70
2023-04-22T04:25:06.924Z,8.56
2023-04-22T04:27:47.063Z,8.72
2023-04-22T04:30:21.885Z,8.71
2023-04-22T04:32:59.028Z,8.68
2023-04-22T04:35:34.790Z,8.76
2023-04-22T04:38:07.920Z,8.93
2023-04-22T04:40:43.625Z,8.93
2023-04-22T04:43:26.340Z,8.91
2023-04-22T04:46:21.233Z,8.93
2023-04-22T04:48:54.450Z,9.00
2023-04-22T04:51:27.556Z,9.26
2023-04-22T04:54:04.155Z,9.29
2023-04-22T04:56:41.540Z,9.30
2023-04-22T04:59:14.963Z,9.59
2023-04-22T05:01:48.309Z,9.49
2023-04-22T05:04:22.069Z,9.67
2023-04-22T05:06:55.126Z,9.73
2023-04-22T05:09:27.511Z,9.77
2023-04-22T05:12:00.285Z,9.69
2023-04-22T05:14:32.456Z,9.79
2023-04-22T05:17:05.477Z,9.83
2023-04-22T05:19:37.530Z,9.93
2023-04-22T05:22:10.489Z,9.80
2023-04-22T05:24:42.643Z,9.69
2023-04-22T05:27:16.021Z,9.72
2023-04-22T05:29:48.040Z,9.48
2023-04-22T05:32:24.460Z,9.40
2023-04-22T05:34:57.010Z,9.53
2023-04-22T05:37:30.047Z,9.45
2023-04-22T05:40:02.036Z,9.70
2023-04-22T05:42:36.418Z,9.87
2023-04-22T05:45:09.135Z,9.96
2023-04-22T05:47:43.360Z,10.08
2023-04-22T05:50:16.027Z,10.22
2023-04-22T05:53:08.650Z,10.41
2023-04-22T05:55:41.140Z,10.53
2023-04-22T05:58:14.874Z,10.58
2023-04-22T06:00:55.707Z,10.73
2023-04-22T06:03:55.854Z,10.92
2023-04-22T06:06:30.675Z,10.89
2023-04-22T06:09:03.471Z,11.09
2023-04-22T06:11:35.696Z,11.28
2023-04-22T06:14:08.997Z,11.70
2023-04-22T06:16:44.653Z,12.14
2023-04-22T06:19:17.447Z,12.58
2023-04-22T06:21:49.701Z,12.91
2023-04-22T06:24:22.933Z,13.18
2023-04-22T06:26:54.869Z,13.20
2023-04-22T06:29:27.821Z,13.44
2023-04-22T06:31:59.846Z,13.67
2023-04-22T06:34:33.208Z,13.69
2023-04-22T06:37:06.515Z,13.46
2023-04-22T06:39:41.977Z,14.17
2023-04-22T06:42:33.206Z,14.84
2023-04-22T06:45:25.327Z,14.60
2023-04-22T06:48:23.218Z,14.18
2023-04-22T06:51:15.123Z,14.36
2023-04-22T06:53:48.003Z,14.30
2023-04-22T06:56:21.256Z,14.41
2023-04-22T06:58:54.804Z,14.39
2023-04-22T07:01:26.863Z,14.27
2023-04-22T07:04:20.878Z,13.76
2023-04-22T07:06:53.785Z,13.86
2023-04-22T07:09:27.240Z,13.90
2023-04-22T07:11:59.353Z,13.80
2023-04-22T07:14:36.221Z,13.91
2023-04-22T07:17:08.131Z,13.79
2023-04-22T07:19:41.619Z,13.87
2023-04-22T07:22:14.175Z,14.08
2023-04-22T07:24:46.893Z,14.17
2023-04-22T07:27:19.202Z,13.97
2023-04-22T07:29:52.041Z,13.77
2023-04-22T07:32:24.063Z,13.72
2023-04-22T07:34:56.912Z,13.95
2023-04-22T07:37:29.477Z,14.72
2023-04-22T07:40:04.528Z,16.21
2023-04-22T07:42:39.058Z,18.08
2023-04-22T07:45:11.895Z,18.82
2023-04-22T07:47:44.251Z,19.57
2023-04-22T07:50:17.206Z,20.98
2023-04-22T07:52:49.413Z,21.27
2023-04-22T07:55:22.168Z,22.33
2023-04-22T07:57:54.475Z,23.94
2023-04-22T08:00:26.908Z,21.93
2023-04-22T08:02:59.747Z,23.67
2023-04-22T08:05:32.191Z,22.33
2023-04-22T08:08:06.510Z,23.87
2023-04-22T08:10:38.855Z,24.44
2023-04-22T08:13:10.823Z,22.74
2023-04-22T08:15:43.592Z,22.32
2023-04-22T08:18:15.588Z,21.30
2023-04-22T08:20:48.554Z,20.78
2023-04-22T08:23:21.370Z,20.72
2023-04-22T08:25:54.143Z,21.53
2023-04-22T08:28:26.298Z,22.65
2023-04-22T08:30:59.085Z,21.98
2023-04-22T08:33:31.388Z,21.97
2023-04-22T08:36:04.129Z,21.56
2023-04-22T08:38:39.277Z,21.60
2023-04-22T08:41:12.736Z,21.63
2023-04-22T08:43:46.834Z,21.97
2023-04-22T08:46:20.268Z,22.01
2023-04-22T08:48:55.219Z,21.54
2023-04-22T08:51:27.667Z,21.02
2023-04-22T08:54:01.288Z,20.92
2023-04-22T08:56:34.915Z,21.41
2023-04-22T08:59:08.035Z,21.37
2023-04-22T09:01:43.429Z,20.99
2023-04-22T09:04:16.650Z,20.52
2023-04-22T09:06:49.034Z,20.60
2023-04-22T09:09:21.597Z,20.60
2023-04-22T09:11:54.205Z,21.37
2023-04-22T09:14:28.238Z,21.81
2023-04-22T09:17:33.527Z,22.39
2023-04-22T09:20:08.789Z,23.30
2023-04-22T09:22:47.181Z,23.78
2023-04-22T09:25:25.969Z,23.40
2023-04-22T09:28:00.290Z,23.24
2023-04-22T09:30:36.548Z,22.84
2023-04-22T09:33:09.046Z,23.36
2023-04-22T09:35:43.236Z,23.99
2023-04-22T09:38:17.133Z,24.57
2023-04-22T09:40:49.696Z,24.20
2023-04-22T09:43:22.539Z,24.52
2023-04-22T09:45:54.938Z,24.30
2023-04-22T09:48:27.452Z,24.87
2023-04-22T09:50:59.430Z,24.65
2023-04-22T09:53:38.254Z,25.56
2023-04-22T09:56:10.266Z,26.12
2023-04-22T09:58:44.197Z,26.27
2023-04-22T10:01:16.644Z,25.55
2023-04-22T10:03:48.627Z,25.28
2023-04-22T10:06:21.492Z,25.87
2023-04-22T10:08:53.565Z,26.92
2023-04-22T10:11:26.012Z,26.72
2023-04-22T10:14:00.915Z,25.86
2023-04-22T10:16:36.086Z,26.34
2023-04-22T10:19:13.892Z,26.72
2023-04-22T10:21:47.732Z,25.80
2023-04-22T10:24:20.646Z,25.56
2023-04-22T10:27:06.812Z,27.19
2023-04-22T10:29:41.817Z,27.90
2023-04-22T10:32:17.998Z,27.25
2023-04-22T10:34:50.652Z,26.34
2023-04-22T10:37:25.686Z,24.71
2023-04-22T10:40:16.696Z,23.73
2023-04-22T10:42:53.547Z,23.65
2023-04-22T10:45:26.537Z,22.90
2023-04-22T10:48:07.527Z,22.50
2023-04-22T10:50:39.918Z,22.60
2023-04-22T10:53:35.733Z,22.72
2023-04-22T10:56:18.100Z,22.22
2023-04-22T10:58:50.602Z,21.72
2023-04-22T11:01:23.302Z,21.42
2023-04-22T11:04:30.794Z,21.09
2023-04-22T11:07:23.174Z,21.04
2023-04-22T11:10:10.493Z,20.85
2023-04-22T11:12:44.778Z,20.59
2023-04-22T11:15:22.299Z,20.51
2023-04-22T11:17:56.137Z,20.45
2023-04-22T11:20:29.462Z,20.35
2023-04-22T11:23:03.849Z,20.14
2023-04-22T11:25:35.950Z,20.80
2023-04-22T11:28:08.502Z,20.99
2023-04-22T11:30:40.932Z,21.15
2023-04-22T11:33:16.902Z,21.79
2023-04-22T11:35:50.599Z,23.28
2023-04-22T11:38:23.344Z,23.88
2023-04-22T11:40:58.323Z,24.02
2023-04-22T11:43:31.712Z,23.53
2023-04-22T11:46:05.082Z,22.74
2023-04-22T11:48:37.872Z,22.85
2023-04-22T11:51:11.737Z,22.98
2023-04-22T11:53:51.637Z,22.87
2023-04-22T11:56:24.119Z,22.63
2023-04-22T11:58:56.078Z,22.47
2023-04-22T12:01:30.132Z,22.88
2023-04-22T12:04:04.057Z,22.55
2023-04-22T12:06:36.288Z,22.74
2023-04-22T12:09:09.088Z,22.70
2023-04-22T12:11:41.321Z,22.42
2023-04-22T12:14:13.914Z,22.00
2023-04-22T12:16:45.896Z,21.26
2023-04-22T12:19:27.141Z,21.59
2023-04-22T12:21:59.750Z,21.57
2023-04-22T12:24:32.840Z,21.39
2023-04-22T12:27:05.139Z,21.79
2023-04-22T12:29:38.172Z,22.29
2023-04-22T12:32:10.244Z,23.23
2023-04-22T12:34:43.014Z,23.42
2023-04-22T12:37:15.374Z,23.00
2023-04-22T12:39:48.219Z,23.59
2023-04-22T12:42:20.184Z,23.34
2023-04-22T12:44:53.083Z,22.49
2023-04-22T12:47:25.819Z,22.31
2023-04-22T12:50:00.704Z,22.41
2023-04-22T12:52:35.281Z,22.44
2023-04-22T12:55:08.755Z,22.28
2023-04-22T12:57:41.143Z,22.51
2023-04-22T13:00:14.783Z,22.52
2023-04-22T13:02:49.911Z,22.18
2023-04-22T13:05:22.427Z,22.81
2023-04-22T13:10:30.923Z,22.63
2023-04-22T13:13:15.863Z,23.36
2023-04-22T13:15:54.454Z,22.98
2023-04-22T13:18:26.984Z,23.09
2023-04-22T13:21:00.650Z,23.23
2023-04-22T13:23:33.781Z,23.40
2023-04-22T13:26:07.308Z,23.22
2023-04-22T13:28:39.250Z,23.26
2023-04-22T13:31:12.126Z,23.34
2023-04-22T13:33:45.452Z,22.74
2023-04-22T13:36:17.383Z,23.07
2023-04-22T13:38:51.328Z,22.71
2023-04-22T13:41:23.230Z,22.41
2023-04-22T13:43:58.702Z,22.94
2023-04-22T13:46:31.103Z,23.17
2023-04-22T13:49:03.878Z,23.35
2023-04-22T13:51:37.799Z,23.69
2023-04-22T13:54:10.166Z,24.12
2023-04-22T13:56:42.464Z,23.83
2023-04-22T13:59:14.947Z,23.65
2023-04-22T14:01:47.326Z,23.85
2023-04-22T14:04:19.662Z,23.57
2023-04-22T14:06:51.740Z,23.35
2023-04-22T14:09:24.505Z,23.22
2023-04-22T14:11:56.846Z,23.30
2023-04-22T14:14:30.088Z,22.95
2023-04-22T14:17:02.725Z,22.54
2023-04-22T14:19:36.445Z,22.48
2023-04-22T14:22:09.226Z,22.74
2023-04-22T14:24:41.182Z,22.51
2023-04-22T14:27:13.624Z,22.40
2023-04-22T14:29:46.213Z,22.25
2023-04-22T14:32:20.247Z,22.37
2023-04-22T14:34:53.515Z,22.46
2023-04-22T14:37:26.671Z,22.39
2023-04-22T14:39:59.032Z,22.49
2023-04-22T14:42:32.360Z,22.28
2023-04-22T14:45:05.553Z,22.32
2023-04-22T14:47:37.442Z,21.95
2023-04-22T14:50:10.628Z,21.85
2023-04-22T14:52:42.614Z,21.85
2023-04-22T14:55:22.508Z,21.80
2023-04-22T14:57:57.850Z,21.64
2023-04-22T15:00:29.991Z,21.41
2023-04-22T15:03:03.437Z,21.19
2023-04-22T15:05:36.632Z,21.02
2023-04-22T15:08:08.608Z,20.78
2023-04-22T15:10:41.277Z,20.72
2023-04-22T15:13:13.633Z,20.46
2023-04-22T15:15:47.205Z,20.07
2023-04-22T15:18:19.712Z,19.97
2023-04-22T15:20:51.708Z,19.85
2023-04-22T15:23:24.711Z,19.49
2023-04-22T15:25:57.544Z,19.05
2023-04-22T15:28:30.247Z,18.63
2023-04-22T15:31:03.216Z,18.24
2023-04-22T15:33:36.187Z,18.22
2023-04-22T15:36:10.052Z,18.24
2023-04-22T15:38:42.010Z,18.22
2023-04-22T15:41:36.837Z,18.23
2023-04-22T15:44:30.932Z,18.02
2023-04-22T15:47:04.156Z,18.04
2023-04-22T15:49:38.363Z,17.94
2023-04-22T15:52:11.424Z,17.90
2023-04-22T15:54:45.529Z,18.00
2023-04-22T15:57:17.894Z,17.80
2023-04-22T15:59:56.398Z,17.81
2023-04-22T16:02:46.515Z,17.84
2023-04-22T16:05:21.372Z,17.97
2023-04-22T16:07:54.652Z,17.99
2023-04-22T16:10:28.398Z,18.00
2023-04-22T16:13:00.293Z,17.93
2023-04-22T16:15:33.063Z,18.04
2023-04-22T16:18:05.717Z,17.90
2023-04-22T16:20:37.705Z,17.77
2023-04-22T16:23:10.819Z,17.98
2023-04-22T16:25:42.864Z,17.95
2023-04-22T16:28:15.933Z,17.92
2023-04-22T16:30:48.156Z,17.86
2023-04-22T16:33:42.369Z,17.83
2023-04-22T16:36:14.324Z,17.77
2023-04-22T16:38:47.056Z,17.83
2023-04-22T16:41:19.951Z,17.84
2023-04-22T16:43:53.118Z,17.80
2023-04-22T16:46:25.590Z,17.68
2023-04-22T16:48:58.337Z,17.47
2023-04-22T16:51:30.767Z,17.52
2023-04-22T16:54:03.092Z,17.48
2023-04-22T16:56:35.820Z,17.59
2023-04-22T16:59:07.780Z,17.54
2023-04-22T17:01:41.203Z,17.59
2023-04-22T17:07:08.423Z,17.45
2023-04-22T17:09:41.150Z,17.32
2023-04-22T17:12:14.232Z,17.38
2023-04-22T17:14:46.639Z,17.44
2023-04-22T17:17:20.096Z,17.51
2023-04-22T17:19:52.520Z,17.39
2023-04-22T17:22:25.257Z,17.53
2023-04-22T17:24:58.750Z,17.54
2023-04-22T17:27:32.115Z,17.45
2023-04-22T17:30:05.267Z,17.36
2023-04-22T17:32:37.718Z,17.40
2023-04-22T17:35:10.518Z,17.25
2023-04-22T17:37:43.456Z,17.14
2023-04-22T17:40:15.833Z,17.10
2023-04-22T17:42:48.682Z,16.91
2023-04-22T17:45:20.802Z,16.86
2023-04-22T17:47:53.642Z,16.70
2023-04-22T17:50:25.957Z,16.78
2023-04-22T17:52:58.801Z,16.57
2023-04-22T17:55:35.007Z,16.59
2023-04-22T17:58:07.862Z,16.45
2023-04-22T18:00:40.302Z,16.21
2023-04-22T18:03:13.511Z,16.22
2023-04-22T18:05:48.947Z,16.13
2023-04-22T18:08:21.302Z,15.99
2023-04-22T18:10:53.920Z,16.03
2023-04-22T18:13:27.375Z,15.90
2023-04-22T18:15:59.703Z,15.79
2023-04-22T18:18:32.634Z,15.77
2023-04-22T18:21:05.017Z,15.91
2023-04-22T18:23:37.304Z,15.77
2023-04-22T18:26:12.044Z,15.78
2023-04-22T18:28:45.356Z,15.70
2023-04-22T18:31:17.677Z,15.72
2023-04-22T18:33:50.871Z,15.71
2023-04-22T18:36:23.202Z,15.66
2023-04-22T18:38:56.451Z,15.63
2023-04-22T18:41:28.353Z,15.66
2023-04-22T18:44:01.505Z,15.76
2023-04-22T18:46:33.445Z,15.72
2023-04-22T18:52:21.182Z,15.79
2023-04-22T18:54:54.281Z,15.84
2023-04-22T18:57:26.845Z,15.88
2023-04-22T18:59:58.755Z,15.75
2023-04-22T19:02:32.547Z,15.80
2023-04-22T19:05:06.421Z,15.74
2023-04-22T19:07:42.484Z,15.79
2023-04-22T19:10:16.059Z,15.84
2023-04-22T19:12:48.824Z,15.67
2023-04-22T19:15:21.372Z,15.74
2023-04-22T19:17:55.209Z,15.79
2023-04-22T19:20:27.122Z,15.68
2023-04-22T19:22:59.881Z,15.78
2023-04-22T19:25:31.775Z,15.73
2023-04-22T19:28:04.757Z,15.61
2023-04-22T19:30:37.203Z,15.64
2023-04-22T19:33:10.472Z,15.59
2023-04-22T19:35:42.452Z,15.58
2023-04-22T19:38:19.378Z,15.61
2023-04-22T19:40:51.374Z,15.52
2023-04-22T19:43:25.084Z,15.61
2023-04-22T19:45:58.702Z,15.54
2023-04-22T19:48:31.778Z,15.57
2023-04-22T19:51:05.465Z,15.48
2023-04-22T19:53:39.606Z,15.43
2023-04-22T19:56:12.137Z,15.46
2023-04-22T19:58:44.383Z,15.47
2023-04-22T20:01:17.520Z,15.56
2023-04-22T20:03:50.006Z,15.51
2023-04-22T20:06:23.210Z,15.44
2023-04-22T20:08:58.926Z,15.46
2023-04-22T20:11:32.740Z,15.41
2023-04-22T20:14:07.377Z,15.40
2023-04-22T20:16:42.590Z,15.44
2023-04-22T20:19:15.407Z,15.25
2023-04-22T20:21:49.247Z,15.26
2023-04-22T20:24:21.907Z,15.26
2023-04-22T20:26:55.666Z,15.18
2023-04-22T20:29:27.773Z,15.16
2023-04-22T20:32:00.755Z,15.30
2023-04-22T20:34:33.801Z,15.17
2023-04-22T20:37:34.466Z,15.11
2023-04-22T20:40:08.605Z,15.13
2023-04-22T20:42:41.765Z,15.03
2023-04-22T20:45:16.114Z,14.97
2023-04-22T20:47:48.542Z,14.88
2023-04-22T20:50:21.542Z,14.89
2023-04-22T20:52:53.700Z,14.86
2023-04-22T20:55:26.738Z,14.83
2023-04-22T20:57:59.174Z,14.74
2023-04-22T21:00:31.491Z,14.79
2023-04-22T21:03:09.191Z,14.65
2023-04-22T21:05:45.895Z,14.74
2023-04-22T21:08:25.550Z,14.65
2023-04-22T21:10:57.683Z,14.55
2023-04-22T21:13:30.751Z,14.54
2023-04-22T21:16:07.253Z,14.53
2023-04-22T21:18:47.479Z,14.38
2023-04-22T21:21:21.794Z,14.46
2023-04-22T21:23:56.702Z,14.39
2023-04-22T21:26:34.393Z,14.40
2023-04-22T21:29:07.113Z,14.39
2023-04-22T21:31:39.202Z,14.28
2023-04-22T21:34:12.044Z,14.20
2023-04-22T21:36:43.980Z,14.34
2023-04-22T21:39:16.761Z,14.16
2023-04-22T21:41:49.832Z,14.27
2023-04-22T21:44:22.537Z,14.17
2023-04-22T21:46:54.680Z,14.17
2023-04-22T21:49:27.438Z,14.04
2023-04-22T21:52:00.042Z,14.08
2023-04-22T21:54:32.389Z,14.05
2023-04-22T21:57:04.387Z,14.11
2023-04-22T21:59:37.160Z,14.06
2023-04-22T22:02:09.089Z,14.03
2023-04-22T22:04:42.252Z,14.08
2023-04-22T22:07:17.891Z,14.03
2023-04-22T22:09:49.859Z,14.12
2023-04-22T22:12:26.430Z,14.17
2023-04-22T22:14:59.260Z,14.14
2023-04-22T22:17:32.520Z,14.15
2023-04-22T22:20:11.656Z,14.13
2023-04-22T22:22:44.504Z,14.22
2023-04-22T22:25:17.328Z,14.08
2023-04-22T22:27:49.517Z,14.23
2023-04-22T22:30:22.844Z,14.28
2023-04-22T22:32:54.961Z,14.23
2023-04-22T22:35:27.737Z,14.29
2023-04-22T22:37:59.622Z,14.22
2023-04-22T22:40:32.367Z,14.24
2023-04-22T22:43:04.271Z,14.06
2023-04-22T22:45:37.421Z,14.19
2023-04-22T22:48:09.821Z,14.00
2023-04-22T22:50:43.886Z,14.12
2023-04-22T22:53:16.360Z,13.96
2023-04-22T22:55:48.855Z,14.08
2023-04-22T22:58:21.537Z,14.11
2023-04-22T23:00:56.162Z,14.13
2023-04-22T23:03:30.809Z,14.03
2023-04-22T23:06:02.909Z,14.14
2023-04-22T23:08:36.039Z,14.10
2023-04-22T23:11:08.339Z,13.93
2023-04-22T23:13:41.521Z,13.81
2023-04-22T23:16:13.816Z,13.80
2023-04-22T23:18:47.145Z,13.61
2023-04-22T23:21:19.796Z,13.65
2023-04-22T23:23:53.207Z,13.53
2023-04-22T23:26:26.228Z,13.60
2023-04-22T23:28:58.928Z,13.47
2023-04-22T23:31:33.874Z,13.30
2023-04-22T23:34:06.617Z,13.46
2023-04-22T23:36:38.831Z,13.45
2023-04-22T23:39:12.202Z,13.56
2023-04-22T23:41:44.598Z,13.59
2023-04-22T23:44:17.351Z,13.59
2023-04-22T23:46:49.641Z,13.62
2023-04-22T23:49:22.620Z,13.54
2023-04-22T23:51:54.523Z,13.53
2023-04-22T23:54:28.718Z,13.52
2023-04-22T23:57:01.467Z,13.47
2023-04-22T23:59:34.287Z,13.66
